Time;durP1;ratioP1;P1;durP2;ratioP2;P2;SDS_P1;SDS_P2;PMS_P1;PMS_P2;Temp;Humidity;BMP_temperature;BMP_pressure;BME280_temperature;BME280_humidity;BME280_pressure;Samples;Min_cycle;Max_cycle;Signal;HPM_P1;HPM_P2
2023/03/04 00:00:11;;;;;;;15.13;10.88;;;21.90;36.10;;;;;;5054056;28;20556;-61
2023/03/04 00:02:38;;;;;;;17.27;12.32;;;21.90;36.10;;;;;;5054792;28;20084;-62
2023/03/04 00:05:06;;;;;;;16.30;11.52;;;21.90;36.10;;;;;;5054445;28;20084;-61
2023/03/04 00:07:33;;;;;;;15.27;11.05;;;21.90;36.10;;;;;;5054910;28;20045;-61
2023/03/04 00:10:00;;;;;;;17.17;12.50;;;21.90;36.00;;;;;;5054312;28;20127;-61
2023/03/04 00:12:28;;;;;;;15.43;11.05;;;21.80;36.00;;;;;;5052428;28;20136;-61
2023/03/04 00:14:55;;;;;;;16.17;11.25;;;21.90;36.10;;;;;;5054219;28;20080;-61
2023/03/04 00:17:22;;;;;;;18.50;12.07;;;21.90;36.10;;;;;;5054336;28;20128;-61
2023/03/04 00:19:50;;;;;;;17.65;11.82;;;21.90;36.10;;;;;;5053671;28;20045;-61
2023/03/04 00:22:17;;;;;;;16.10;11.70;;;21.80;36.00;;;;;;5053592;28;20049;-61
2023/03/04 00:24:44;;;;;;;15.98;11.45;;;21.80;36.00;;;;;;5052771;28;20123;-61
2023/03/04 00:27:11;;;;;;;14.30;10.70;;;21.80;36.00;;;;;;5053840;28;20048;-61
2023/03/04 00:29:38;;;;;;;16.33;10.63;;;21.80;36.00;;;;;;5054177;28;20048;-61
2023/03/04 00:32:05;;;;;;;14.80;10.55;;;21.80;36.00;;;;;;5054095;28;20084;-61
2023/03/04 00:34:32;;;;;;;16.75;11.48;;;21.80;36.00;;;;;;5054226;28;20103;-61
2023/03/04 00:37:02;;;;;;;14.23;10.70;;;21.80;36.00;;;;;;5053562;28;20056;-61
2023/03/04 00:39:29;;;;;;;15.07;10.60;;;21.80;36.00;;;;;;5053559;28;20120;-61
2023/03/04 00:41:56;;;;;;;15.10;11.15;;;21.80;35.90;;;;;;5053488;28;20084;-61
2023/03/04 00:44:23;;;;;;;15.45;10.85;;;21.80;36.00;;;;;;5053504;28;20049;-61
2023/03/04 00:46:51;;;;;;;15.02;10.73;;;21.80;35.90;;;;;;5053085;28;20080;-61
2023/03/04 00:49:18;;;;;;;16.20;10.50;;;21.70;35.90;;;;;;5053171;28;20075;-61
2023/03/04 00:51:45;;;;;;;15.70;11.00;;;21.70;35.90;;;;;;5053737;28;20131;-62
2023/03/04 00:54:12;;;;;;;13.18;10.20;;;21.80;35.90;;;;;;5053524;28;20128;-61
2023/03/04 00:56:39;;;;;;;13.73;10.15;;;21.80;35.90;;;;;;5052807;28;20145;-61
2023/03/04 00:59:06;;;;;;;14.52;10.60;;;21.70;35.80;;;;;;5053657;28;20048;-61
2023/03/04 01:01:33;;;;;;;13.93;10.63;;;21.70;35.80;;;;;;5053109;28;20091;-61
2023/03/04 01:04:00;;;;;;;14.00;10.18;;;21.80;35.90;;;;;;5053337;28;20122;-61
2023/03/04 01:06:28;;;;;;;13.48;10.15;;;21.70;35.80;;;;;;5053049;28;20087;-61
2023/03/04 01:08:55;;;;;;;14.07;9.95;;;21.70;35.90;;;;;;5053356;28;20049;-61
2023/03/04 01:11:22;;;;;;;15.05;9.98;;;21.70;35.80;;;;;;5052024;28;20045;-61
2023/03/04 01:13:49;;;;;;;16.05;10.75;;;21.70;35.90;;;;;;5052809;28;20131;-62
2023/03/04 01:16:16;;;;;;;11.93;9.13;;;21.70;35.80;;;;;;5051494;28;20507;-61
2023/03/04 01:18:46;;;;;;;15.82;10.35;;;21.70;35.80;;;;;;5053498;28;20071;-61
2023/03/04 01:21:13;;;;;;;13.40;9.60;;;21.70;35.80;;;;;;5052024;28;20131;-61
2023/03/04 01:23:40;;;;;;;13.68;9.65;;;21.70;35.80;;;;;;5051302;28;20124;-61
2023/03/04 01:26:07;;;;;;;13.77;8.93;;;21.70;35.80;;;;;;5052817;28;20408;-61
2023/03/04 01:28:34;;;;;;;14.10;9.90;;;21.70;35.80;;;;;;5052471;28;20084;-61
2023/03/04 01:31:03;;;;;;;13.75;9.68;;;21.70;35.80;;;;;;5052131;28;20056;-61
2023/03/04 01:33:30;;;;;;;12.63;9.60;;;21.70;35.80;;;;;;5051938;28;20048;-61
2023/03/04 01:35:57;;;;;;;12.73;9.73;;;21.60;35.80;;;;;;5052369;28;20059;-61
2023/03/04 01:38:25;;;;;;;14.43;10.65;;;21.70;35.80;;;;;;5053120;28;20088;-61
2023/03/04 01:40:52;;;;;;;13.85;9.40;;;21.60;35.80;;;;;;5052933;28;20443;-63
2023/03/04 01:43:26;;;;;;;10.55;8.52;;;21.70;35.80;;;;;;5052290;28;20052;-61
2023/03/04 01:45:55;;;;;;;13.30;9.60;;;21.60;35.80;;;;;;5050835;28;20481;-63
2023/03/04 01:48:32;;;;;;;12.82;9.20;;;21.60;35.80;;;;;;5052158;28;20124;-61
2023/03/04 01:51:02;;;;;;;10.80;8.50;;;21.60;35.80;;;;;;5051880;28;20128;-61
2023/03/04 01:53:30;;;;;;;11.95;8.90;;;21.60;35.80;;;;;;5052204;28;20047;-61
2023/03/04 01:56:10;;;;;;;13.00;9.60;;;21.60;35.70;;;;;;5052191;28;20041;-61
2023/03/04 01:58:37;;;;;;;12.90;9.30;;;21.60;35.70;;;;;;5053080;28;20584;-61
2023/03/04 02:01:04;;;;;;;12.63;9.48;;;21.60;35.70;;;;;;5050872;28;20052;-61
2023/03/04 02:03:32;;;;;;;10.48;8.15;;;21.60;35.60;;;;;;5051428;28;20161;-61
2023/03/04 02:05:59;;;;;;;10.88;8.85;;;21.70;35.60;;;;;;5052414;28;20103;-62
2023/03/04 02:08:26;;;;;;;9.88;8.18;;;21.60;35.60;;;;;;5052605;28;20045;-61
2023/03/04 02:10:54;;;;;;;11.05;8.10;;;21.70;35.60;;;;;;5052228;28;20049;-61
2023/03/04 02:13:21;;;;;;;11.07;8.15;;;21.60;35.60;;;;;;5051711;28;20556;-61
2023/03/04 02:15:48;;;;;;;8.90;7.40;;;21.60;35.60;;;;;;5052530;28;20045;-61
2023/03/04 02:18:19;;;;;;;10.70;8.32;;;21.60;35.60;;;;;;5051341;28;20051;-61
2023/03/04 02:21:22;;;;;;;11.18;8.63;;;21.60;35.60;;;;;;5050913;28;20063;-61
2023/03/04 02:24:01;;;;;;;11.68;8.43;;;21.60;35.50;;;;;;5051996;28;20477;-61
2023/03/04 02:26:30;;;;;;;10.27;7.85;;;21.60;35.50;;;;;;5052445;28;20107;-61
2023/03/04 02:28:59;;;;;;;11.07;7.93;;;21.60;35.50;;;;;;5052765;28;20123;-61
2023/03/04 02:31:39;;;;;;;9.75;7.75;;;21.60;35.50;;;;;;5050961;28;20056;-61
2023/03/04 02:34:19;;;;;;;10.48;8.40;;;21.60;35.50;;;;;;5052122;28;20104;-61
2023/03/04 02:36:47;;;;;;;10.93;8.50;;;21.60;35.50;;;;;;5054501;28;20071;-61
2023/03/04 02:39:30;;;;;;;12.40;8.43;;;21.60;35.50;;;;;;5055931;28;20055;-61
2023/03/04 02:41:58;;;;;;;10.57;8.07;;;21.60;35.50;;;;;;5055159;28;20053;-61
2023/03/04 02:44:29;;;;;;;11.25;7.88;;;21.60;35.50;;;;;;5055108;28;20048;-61
2023/03/04 02:46:57;;;;;;;10.10;8.05;;;21.60;35.50;;;;;;5056387;28;20118;-61
2023/03/04 02:49:26;;;;;;;9.70;7.15;;;21.60;35.50;;;;;;5055559;28;20049;-61
2023/03/04 02:52:06;;;;;;;10.35;7.82;;;21.60;35.50;;;;;;5055197;28;20055;-61
2023/03/04 02:54:33;;;;;;;10.90;7.63;;;21.60;35.50;;;;;;5055600;28;20056;-61
2023/03/04 02:57:03;;;;;;;12.68;7.65;;;21.60;35.40;;;;;;5054733;28;20111;-61
2023/03/04 02:59:30;;;;;;;10.48;7.68;;;21.50;35.40;;;;;;5055888;28;20084;-61
2023/03/04 03:01:58;;;;;;;10.35;7.90;;;21.50;35.40;;;;;;5055176;28;20089;-61
2023/03/04 03:04:27;;;;;;;9.88;7.28;;;21.50;35.40;;;;;;5054266;28;20091;-61
2023/03/04 03:06:54;;;;;;;8.73;6.95;;;21.50;35.40;;;;;;5054761;28;20059;-61
2023/03/04 03:09:22;;;;;;;9.13;6.47;;;21.50;35.40;;;;;;5054317;28;20073;-61
2023/03/04 03:11:49;;;;;;;9.05;7.05;;;21.50;35.40;;;;;;5054438;28;20131;-61
2023/03/04 03:14:16;;;;;;;7.65;6.20;;;21.50;35.40;;;;;;5054156;28;20481;-61
2023/03/04 03:16:43;;;;;;;9.98;7.90;;;21.50;35.30;;;;;;5055836;28;20071;-61
2023/03/04 03:19:11;;;;;;;10.73;7.50;;;21.50;35.40;;;;;;5054909;28;20124;-61
2023/03/04 03:21:38;;;;;;;10.05;7.18;;;21.50;35.40;;;;;;5054035;28;20049;-61
2023/03/04 03:24:05;;;;;;;8.32;6.93;;;21.50;35.40;;;;;;5054474;28;20103;-61
2023/03/04 03:26:32;;;;;;;9.50;6.80;;;21.50;35.90;;;;;;5054482;28;20044;-61
2023/03/04 03:28:59;;;;;;;8.98;7.05;;;21.50;35.30;;;;;;5054941;28;20520;-61
2023/03/04 03:31:29;;;;;;;9.80;6.68;;;21.50;35.40;;;;;;5054634;28;20107;-61
2023/03/04 03:33:56;;;;;;;8.73;7.18;;;21.50;35.40;;;;;;5054848;28;20049;-61
2023/03/04 03:36:23;;;;;;;8.55;7.00;;;21.50;35.30;;;;;;5054270;28;20131;-61
2023/03/04 03:38:51;;;;;;;7.43;6.25;;;21.50;35.30;;;;;;5054939;28;20045;-61
2023/03/04 03:41:18;;;;;;;7.93;6.13;;;21.40;35.30;;;;;;5054067;28;20476;-61
2023/03/04 03:43:45;;;;;;;7.88;6.57;;;21.50;35.30;;;;;;5054381;28;20045;-61
2023/03/04 03:46:12;;;;;;;9.18;6.60;;;21.40;35.30;;;;;;5052068;28;20080;-64
2023/03/04 03:48:39;;;;;;;8.50;6.85;;;21.40;35.30;;;;;;5054492;28;20055;-61
2023/03/04 03:51:06;;;;;;;10.10;7.18;;;21.40;35.30;;;;;;5053320;28;20084;-61
2023/03/04 03:53:33;;;;;;;7.82;5.68;;;21.40;35.30;;;;;;5054199;28;20131;-61
2023/03/04 03:56:00;;;;;;;8.98;6.20;;;21.40;35.30;;;;;;5052842;28;20181;-61
2023/03/04 03:58:27;;;;;;;9.38;6.40;;;21.40;35.20;;;;;;5053980;28;20080;-61
2023/03/04 04:00:55;;;;;;;7.65;6.70;;;21.40;35.20;;;;;;5053870;28;20076;-61
2023/03/04 04:03:24;;;;;;;7.90;6.50;;;21.40;35.20;;;;;;5053656;28;20412;-62
2023/03/04 04:05:52;;;;;;;6.55;5.32;;;21.40;35.20;;;;;;5054033;28;20390;-61
2023/03/04 04:08:19;;;;;;;9.07;6.50;;;21.40;35.10;;;;;;5054403;28;20056;-62
2023/03/04 04:10:46;;;;;;;8.00;6.35;;;21.40;35.10;;;;;;5054828;28;20049;-61
2023/03/04 04:13:13;;;;;;;7.53;6.30;;;21.40;35.10;;;;;;5054660;28;20056;-61
2023/03/04 04:15:40;;;;;;;8.25;6.07;;;21.40;35.10;;;;;;5053673;28;20503;-61
2023/03/04 04:18:08;;;;;;;8.18;5.90;;;21.40;35.10;;;;;;5053273;28;20103;-61
2023/03/04 04:20:35;;;;;;;7.60;6.00;;;21.40;35.10;;;;;;5053862;28;20538;-61
2023/03/04 04:23:03;;;;;;;7.05;5.50;;;21.40;35.00;;;;;;5053900;28;20444;-61
2023/03/04 04:25:30;;;;;;;7.00;6.00;;;21.40;35.00;;;;;;5053873;28;20163;-61
2023/03/04 04:27:58;;;;;;;7.97;6.35;;;21.40;35.00;;;;;;5054273;28;20063;-61
2023/03/04 04:30:25;;;;;;;8.45;5.60;;;21.40;35.00;;;;;;5053583;28;20132;-61
2023/03/04 04:32:52;;;;;;;7.72;5.75;;;21.40;35.00;;;;;;5053476;28;20532;-61
2023/03/04 04:35:20;;;;;;;8.77;6.25;;;21.40;35.00;;;;;;5053804;28;20045;-61
2023/03/04 04:37:47;;;;;;;7.07;6.07;;;21.40;35.00;;;;;;5054307;28;20432;-61
2023/03/04 04:40:15;;;;;;;6.53;5.25;;;21.40;35.00;;;;;;5053378;28;20459;-61
2023/03/04 04:42:42;;;;;;;7.05;5.90;;;21.40;35.00;;;;;;5054061;28;20095;-61
2023/03/04 04:45:10;;;;;;;8.50;5.90;;;21.40;34.90;;;;;;5054033;28;20077;-61
2023/03/04 04:47:37;;;;;;;6.97;5.80;;;21.40;35.00;;;;;;5053577;28;20092;-61
2023/03/04 04:50:05;;;;;;;8.00;6.15;;;21.40;34.90;;;;;;5053786;28;20059;-61
2023/03/04 04:52:32;;;;;;;6.97;5.90;;;21.40;35.00;;;;;;5053711;28;20041;-61
2023/03/04 04:54:59;;;;;;;9.30;6.22;;;21.40;35.00;;;;;;5053343;28;20095;-61
2023/03/04 04:57:26;;;;;;;7.78;5.80;;;21.30;35.00;;;;;;5053307;28;20048;-61
2023/03/04 04:59:54;;;;;;;7.32;5.75;;;21.40;35.00;;;;;;5052935;28;20135;-61
2023/03/04 05:02:21;;;;;;;6.50;5.13;;;21.30;34.90;;;;;;5054017;28;20468;-61
2023/03/04 05:04:48;;;;;;;6.85;5.65;;;21.30;34.90;;;;;;5053118;28;20095;-61
2023/03/04 05:07:15;;;;;;;6.90;5.53;;;21.30;34.90;;;;;;5053667;28;20055;-61
2023/03/04 05:09:42;;;;;;;7.03;5.43;;;21.30;34.90;;;;;;5053347;28;20049;-61
2023/03/04 05:12:09;;;;;;;6.25;5.47;;;21.30;34.90;;;;;;5052480;28;20095;-61
2023/03/04 05:14:36;;;;;;;7.18;5.45;;;21.30;34.80;;;;;;5053419;28;20049;-61
2023/03/04 05:17:04;;;;;;;7.13;5.50;;;21.30;34.90;;;;;;5053584;28;20087;-61
2023/03/04 05:19:31;;;;;;;7.43;5.30;;;21.30;34.90;;;;;;5053736;28;20119;-61
2023/03/04 05:21:58;;;;;;;5.97;5.10;;;21.30;34.80;;;;;;5052949;28;20053;-61
2023/03/04 05:24:25;;;;;;;7.55;5.75;;;21.30;34.80;;;;;;5052661;28;20128;-61
2023/03/04 05:26:52;;;;;;;8.50;6.25;;;21.30;35.00;;;;;;5052985;28;20076;-61
2023/03/04 05:29:19;;;;;;;6.18;5.05;;;21.30;34.80;;;;;;5053313;28;20053;-61
2023/03/04 05:31:47;;;;;;;6.30;5.45;;;21.30;34.80;;;;;;5052502;28;20041;-61
2023/03/04 05:34:14;;;;;;;7.47;5.53;;;21.30;34.80;;;;;;5052790;28;20049;-61
2023/03/04 05:36:41;;;;;;;6.72;5.50;;;21.30;34.70;;;;;;5052418;28;20136;-61
2023/03/04 05:39:08;;;;;;;6.53;5.25;;;21.30;34.50;;;;;;5052818;28;20051;-61
2023/03/04 05:41:35;;;;;;;7.97;6.00;;;21.30;34.30;;;;;;5052858;28;20122;-61
2023/03/04 05:44:03;;;;;;;6.75;5.78;;;21.30;34.30;;;;;;5053370;28;20053;-61
2023/03/04 05:46:30;;;;;;;7.03;6.32;;;21.30;34.20;;;;;;5053234;28;20046;-61
2023/03/04 05:48:59;;;;;;;7.30;6.13;;;21.30;34.20;;;;;;5053311;28;20052;-61
2023/03/04 05:51:26;;;;;;;7.07;5.95;;;21.30;34.20;;;;;;5052706;28;20040;-61
2023/03/04 05:53:53;;;;;;;7.95;6.22;;;21.20;34.20;;;;;;5052404;28;20088;-61
2023/03/04 05:56:21;;;;;;;7.20;6.20;;;21.20;34.20;;;;;;5052586;28;20052;-61
2023/03/04 05:58:48;;;;;;;8.32;5.88;;;21.20;34.10;;;;;;5052328;28;20052;-61
2023/03/04 06:01:15;;;;;;;7.22;6.35;;;21.20;34.10;;;;;;5052909;28;20049;-61
2023/03/04 06:03:43;;;;;;;7.47;6.40;;;21.30;34.20;;;;;;5053120;28;20052;-61
2023/03/04 06:06:10;;;;;;;7.30;6.15;;;21.30;34.20;;;;;;5051594;28;20041;-61
2023/03/04 06:08:37;;;;;;;7.45;6.28;;;21.30;34.20;;;;;;5053183;28;20041;-62
2023/03/04 06:11:05;;;;;;;8.73;6.07;;;21.40;34.10;;;;;;5055384;28;20128;-61
2023/03/04 06:13:33;;;;;;;7.78;6.30;;;21.40;34.10;;;;;;5057153;28;20124;-61
2023/03/04 06:16:01;;;;;;;8.48;6.32;;;21.40;34.10;;;;;;5056536;28;20404;-61
2023/03/04 06:18:28;;;;;;;8.05;6.40;;;21.40;33.90;;;;;;5056980;28;20378;-61
2023/03/04 06:20:58;;;;;;;8.20;6.35;;;21.50;34.00;;;;;;5056576;28;20080;-61
2023/03/04 06:23:26;;;;;;;6.60;5.70;;;21.50;33.90;;;;;;5056196;28;20044;-61
2023/03/04 06:25:55;;;;;;;7.60;6.15;;;21.50;33.80;;;;;;5055336;28;20088;-61
2023/03/04 06:28:23;;;;;;;8.13;6.55;;;21.60;33.80;;;;;;5056418;28;20478;-61
2023/03/04 06:30:51;;;;;;;8.95;7.20;;;21.60;33.70;;;;;;5055968;28;20052;-61
2023/03/04 06:33:19;;;;;;;8.18;6.68;;;21.70;33.70;;;;;;5056541;28;20068;-61
2023/03/04 06:35:46;;;;;;;7.72;6.20;;;21.70;33.60;;;;;;5056448;28;20084;-61
2023/03/04 06:38:14;;;;;;;7.00;6.28;;;21.70;33.50;;;;;;5056055;28;20053;-61
2023/03/04 06:40:41;;;;;;;8.30;6.57;;;21.80;33.50;;;;;;5056084;28;20081;-62
2023/03/04 06:43:08;;;;;;;9.18;7.15;;;21.80;33.40;;;;;;5054857;28;20075;-61
2023/03/04 06:45:38;;;;;;;8.77;7.28;;;21.90;33.40;;;;;;5056197;28;20049;-61
2023/03/04 06:48:05;;;;;;;11.43;8.32;;;21.90;33.30;;;;;;5056422;28;20091;-61
2023/03/04 06:50:32;;;;;;;8.48;6.85;;;21.90;33.20;;;;;;5056452;28;20118;-61
2023/03/04 06:52:59;;;;;;;10.02;7.20;;;21.90;33.10;;;;;;5055620;28;20136;-61
2023/03/04 06:55:26;;;;;;;8.98;7.00;;;22.00;33.20;;;;;;5055375;28;20488;-61
2023/03/04 06:57:54;;;;;;;8.95;7.00;;;22.00;33.10;;;;;;5055215;28;20135;-61
2023/03/04 07:00:22;;;;;;;9.40;7.40;;;22.00;33.00;;;;;;5055713;28;20051;-61
2023/03/04 07:02:50;;;;;;;10.13;7.20;;;22.10;33.00;;;;;;5056361;28;20139;-61
2023/03/04 07:05:20;;;;;;;8.30;6.95;;;22.10;32.90;;;;;;5055674;28;20077;-61
2023/03/04 07:07:48;;;;;;;10.07;8.23;;;22.20;32.90;;;;;;5055303;28;20048;-61
2023/03/04 07:10:17;;;;;;;10.02;8.02;;;22.20;32.90;;;;;;5055094;28;20053;-61
2023/03/04 07:12:44;;;;;;;11.05;8.85;;;22.20;32.80;;;;;;5055548;28;20095;-61
2023/03/04 07:15:12;;;;;;;9.48;8.10;;;22.30;32.80;;;;;;5055753;28;20239;-61
2023/03/04 07:17:39;;;;;;;11.23;8.73;;;22.30;32.70;;;;;;5054682;28;20477;-61
2023/03/04 07:20:07;;;;;;;11.02;8.93;;;22.30;32.70;;;;;;5055071;28;20059;-61
2023/03/04 07:22:34;;;;;;;11.10;9.00;;;22.40;32.70;;;;;;5054975;28;20111;-61
2023/03/04 07:25:01;;;;;;;11.27;8.65;;;22.40;32.70;;;;;;5055584;28;20049;-61
2023/03/04 07:27:28;;;;;;;10.82;8.55;;;22.40;32.60;;;;;;5055305;28;20049;-61
2023/03/04 07:29:55;;;;;;;12.00;9.05;;;22.50;32.60;;;;;;5054575;28;20107;-61
2023/03/04 07:32:22;;;;;;;12.43;9.50;;;22.50;32.50;;;;;;5055261;28;20079;-61
2023/03/04 07:34:50;;;;;;;12.25;9.52;;;22.50;32.50;;;;;;5053886;28;20139;-62
2023/03/04 07:37:17;;;;;;;13.88;10.07;;;22.50;32.50;;;;;;5054876;28;20041;-61
2023/03/04 07:39:46;;;;;;;14.77;10.93;;;22.60;32.50;;;;;;5054373;28;20049;-61
2023/03/04 07:42:13;;;;;;;11.85;9.73;;;22.60;32.40;;;;;;5055078;28;20063;-60
2023/03/04 07:44:40;;;;;;;16.33;11.27;;;22.60;32.40;;;;;;5055511;28;20077;-61
2023/03/04 07:47:07;;;;;;;13.73;10.75;;;22.70;32.40;;;;;;5055104;28;20045;-61
2023/03/04 07:49:34;;;;;;;13.90;10.50;;;22.70;32.40;;;;;;5053839;28;20135;-61
2023/03/04 07:52:03;;;;;;;14.70;11.20;;;22.70;32.40;;;;;;5046930;28;20096;-61
2023/03/04 07:54:31;;;;;;;13.60;9.48;;;22.70;32.30;;;;;;5035295;28;20133;-61
2023/03/04 07:56:58;;;;;;;13.20;9.65;;;22.80;32.40;;;;;;5033926;28;20046;-61
2023/03/04 07:59:26;;;;;;;13.60;9.93;;;22.80;32.50;;;;;;5034594;28;20144;-61
2023/03/04 08:01:53;;;;;;;13.32;9.32;;;22.80;32.50;;;;;;5034453;28;20470;-62
2023/03/04 08:04:20;;;;;;;13.40;11.05;;;22.80;32.50;;;;;;5035139;28;20085;-61
2023/03/04 08:06:47;;;;;;;12.38;9.07;;;22.90;32.50;;;;;;5034380;28;20425;-61
2023/03/04 08:09:14;;;;;;;16.75;10.85;;;22.80;32.40;;;;;;5034757;28;20448;-61
2023/03/04 08:11:42;;;;;;;13.52;9.90;;;22.80;32.40;;;;;;5034098;28;20065;-61
2023/03/04 08:14:11;;;;;;;12.60;10.00;;;22.90;32.40;;;;;;5034716;28;20137;-61
2023/03/04 08:16:38;;;;;;;14.95;10.73;;;22.90;32.40;;;;;;5033805;28;20049;-61
2023/03/04 08:19:06;;;;;;;13.27;10.20;;;22.90;32.40;;;;;;5049982;28;20092;-61
2023/03/04 08:21:34;;;;;;;13.07;10.07;;;23.00;32.40;;;;;;5053995;28;20045;-61
2023/03/04 08:24:06;;;;;;;13.88;10.02;;;23.00;32.40;;;;;;5054014;28;20132;-62
2023/03/04 08:26:40;;;;;;;12.02;9.70;;;23.00;32.30;;;;;;5053555;28;20414;-61
2023/03/04 08:29:12;;;;;;;14.63;10.15;;;23.00;32.30;;;;;;5053180;28;20131;-61
2023/03/04 08:31:39;;;;;;;15.80;10.75;;;23.00;32.20;;;;;;5053042;28;20041;-61
2023/03/04 08:34:09;;;;;;;14.18;10.43;;;23.10;32.30;;;;;;5052414;28;20052;-61
2023/03/04 08:36:36;;;;;;;15.15;10.43;;;23.10;32.10;;;;;;5054100;28;20482;-60
2023/03/04 08:39:04;;;;;;;15.57;9.32;;;23.10;32.00;;;;;;5054035;28;20053;-61
2023/03/04 08:41:31;;;;;;;13.35;9.88;;;23.10;31.90;;;;;;5052848;28;20045;-61
2023/03/04 08:44:00;;;;;;;12.45;9.13;;;23.20;31.90;;;;;;5053496;28;20056;-61
2023/03/04 08:46:29;;;;;;;12.73;9.55;;;23.30;31.80;;;;;;5052096;28;20045;-61
2023/03/04 08:48:56;;;;;;;14.48;9.60;;;23.30;31.70;;;;;;5053727;28;20463;-60
2023/03/04 08:51:24;;;;;;;16.38;10.27;;;23.30;32.20;;;;;;5052937;28;20136;-60
2023/03/04 08:53:52;;;;;;;13.20;9.63;;;23.30;31.50;;;;;;5053362;28;20466;-61
2023/03/04 08:56:19;;;;;;;13.60;10.10;;;23.40;31.40;;;;;;5053058;28;20580;-61
2023/03/04 08:58:46;;;;;;;12.18;8.60;;;23.40;31.30;;;;;;5053124;28;20057;-61
2023/03/04 09:01:14;;;;;;;13.02;9.18;;;23.40;31.30;;;;;;5052580;28;20045;-61
2023/03/04 09:03:42;;;;;;;14.20;9.48;;;23.40;31.20;;;;;;5051826;28;20079;-61
2023/03/04 09:06:15;;;;;;;13.25;9.30;;;23.40;31.10;;;;;;5053006;28;20056;-61
2023/03/04 09:08:43;;;;;;;13.95;9.80;;;23.60;31.10;;;;;;5054013;28;20088;-61
2023/03/04 09:11:12;;;;;;;11.00;8.27;;;23.50;31.00;;;;;;5053841;28;20052;-61
2023/03/04 09:13:39;;;;;;;12.85;9.23;;;23.60;31.00;;;;;;5052398;28;20128;-61
2023/03/04 09:16:12;;;;;;;11.50;9.05;;;23.60;31.00;;;;;;5050291;28;20041;-61
2023/03/04 09:18:40;;;;;;;12.07;8.85;;;23.60;30.90;;;;;;5050009;28;20053;-61
2023/03/04 09:21:08;;;;;;;12.15;9.82;;;23.60;30.90;;;;;;5053147;28;20073;-61
2023/03/04 09:23:36;;;;;;;11.93;8.20;;;23.70;30.90;;;;;;5053361;28;20059;-61
2023/03/04 09:26:20;;;;;;;12.60;8.25;;;23.70;30.80;;;;;;5052483;28;20047;-61
2023/03/04 09:28:56;;;;;;;12.27;9.50;;;23.70;31.30;;;;;;5052941;28;20048;-60
2023/03/04 09:31:25;;;;;;;13.40;9.23;;;23.70;30.70;;;;;;5052997;28;20049;-61
2023/03/04 09:33:54;;;;;;;12.10;8.52;;;23.70;30.60;;;;;;5053160;28;20523;-61
2023/03/04 09:36:22;;;;;;;10.55;8.05;;;23.70;30.60;;;;;;5052149;28;20048;-61
2023/03/04 09:38:49;;;;;;;12.48;8.27;;;23.80;30.60;;;;;;5052285;28;20081;-61
2023/03/04 09:41:21;;;;;;;12.48;9.20;;;23.80;30.60;;;;;;5052131;28;20476;-61
2023/03/04 09:43:51;;;;;;;11.02;8.30;;;23.80;30.60;;;;;;5052915;28;20478;-61
2023/03/04 09:46:33;;;;;;;11.32;8.38;;;23.80;30.50;;;;;;5052346;28;20132;-61
2023/03/04 09:49:01;;;;;;;12.18;8.13;;;23.90;30.50;;;;;;5052984;28;20045;-61
2023/03/04 09:52:09;;;;;;;10.02;8.10;;;23.90;30.40;;;;;;5052495;28;20049;-61
2023/03/04 09:55:03;;;;;;;12.90;9.00;;;23.90;30.40;;;;;;5051241;28;20132;-60
2023/03/04 09:57:51;;;;;;;11.15;8.07;;;23.90;30.40;;;;;;5051936;28;20132;-61
2023/03/04 10:00:42;;;;;;;10.63;7.93;;;24.00;30.40;;;;;;5052379;28;20049;-61
2023/03/04 10:03:18;;;;;;;10.95;7.95;;;24.00;30.40;;;;;;5051717;28;20045;-61
2023/03/04 10:05:54;;;;;;;12.27;8.93;;;24.00;30.30;;;;;;5052471;28;20052;-61
2023/03/04 10:08:41;;;;;;;10.13;7.90;;;24.00;30.30;;;;;;5052799;28;20128;-61
2023/03/04 10:11:16;;;;;;;11.35;8.48;;;24.10;30.30;;;;;;5051444;28;20071;-60
2023/03/04 10:13:54;;;;;;;8.52;7.47;;;24.10;30.20;;;;;;5052670;28;20124;-61
2023/03/04 10:16:28;;;;;;;9.48;7.60;;;24.10;30.20;;;;;;5053025;28;20124;-61
2023/03/04 10:19:20;;;;;;;10.35;8.25;;;24.10;30.20;;;;;;5052628;28;20059;-61
2023/03/04 10:21:50;;;;;;;11.10;8.07;;;24.10;30.10;;;;;;5051365;28;20564;-61
2023/03/04 10:24:24;;;;;;;13.13;7.82;;;24.10;30.10;;;;;;5053008;28;20132;-62
2023/03/04 10:27:00;;;;;;;10.38;8.10;;;24.10;30.10;;;;;;5052500;28;20045;-61
2023/03/04 10:29:30;;;;;;;12.93;7.88;;;24.20;30.00;;;;;;5052645;28;20131;-61
2023/03/04 10:31:57;;;;;;;8.75;7.47;;;24.20;30.00;;;;;;5052436;28;20051;-61
2023/03/04 10:34:25;;;;;;;12.40;8.23;;;24.20;30.00;;;;;;5052726;28;20639;-61
2023/03/04 10:36:58;;;;;;;10.85;7.82;;;24.20;30.00;;;;;;5052324;28;20049;-61
2023/03/04 10:39:37;;;;;;;9.70;7.47;;;24.30;30.00;;;;;;5051695;28;20476;-61
2023/03/04 10:42:26;;;;;;;11.00;7.80;;;24.30;30.00;;;;;;5052430;28;20076;-61
2023/03/04 10:44:57;;;;;;;11.25;7.78;;;24.30;30.00;;;;;;5051288;28;20491;-61
2023/03/04 10:47:28;;;;;;;11.20;7.97;;;24.30;30.00;;;;;;5052477;28;20493;-61
2023/03/04 10:50:01;;;;;;;11.05;8.20;;;24.30;30.00;;;;;;5050100;28;20472;-61
2023/03/04 10:52:34;;;;;;;11.43;7.85;;;24.30;30.00;;;;;;5052165;28;20052;-62
2023/03/04 10:55:14;;;;;;;9.55;7.25;;;24.30;30.00;;;;;;5051917;28;20563;-61
2023/03/04 10:57:47;;;;;;;10.18;7.50;;;24.40;30.00;;;;;;5053599;28;20503;-60
2023/03/04 11:00:28;;;;;;;10.02;7.55;;;24.50;30.00;;;;;;5055154;28;20140;-60
2023/03/04 11:03:23;;;;;;;10.73;7.97;;;24.50;30.00;;;;;;5056317;28;20128;-60
2023/03/04 11:06:12;;;;;;;10.02;7.50;;;24.50;29.90;;;;;;5054465;28;20045;-60
2023/03/04 11:08:41;;;;;;;10.10;7.57;;;24.50;29.90;;;;;;5054728;28;20049;-60
2023/03/04 11:11:37;;;;;;;10.95;8.20;;;24.50;30.00;;;;;;5054979;28;20465;-60
2023/03/04 11:14:19;;;;;;;10.00;7.40;;;24.50;29.90;;;;;;5055702;28;20576;-60
2023/03/04 11:16:59;;;;;;;9.93;7.55;;;24.50;29.90;;;;;;5055277;28;20083;-60
2023/03/04 11:19:37;;;;;;;10.82;8.05;;;24.50;29.80;;;;;;5055063;28;20095;-61
2023/03/04 11:22:05;;;;;;;11.63;8.13;;;24.50;29.80;;;;;;5055495;28;20076;-60
2023/03/04 11:24:35;;;;;;;9.07;7.55;;;24.60;29.80;;;;;;5055637;28;20098;-60
2023/03/04 11:27:07;;;;;;;8.93;7.22;;;24.60;29.80;;;;;;5054874;28;20124;-60
2023/03/04 11:29:45;;;;;;;10.77;7.60;;;24.60;29.80;;;;;;5055811;28;20047;-60
2023/03/04 11:32:23;;;;;;;10.70;8.38;;;24.60;29.70;;;;;;5055621;28;20131;-60
2023/03/04 11:35:14;;;;;;;14.45;9.23;;;24.70;29.80;;;;;;5055190;28;20044;-60
2023/03/04 11:38:08;;;;;;;13.00;7.70;;;24.70;29.70;;;;;;5055470;28;20059;-60
2023/03/04 11:40:51;;;;;;;11.35;7.78;;;24.70;29.70;;;;;;5055520;28;20132;-60
2023/03/04 11:43:26;;;;;;;11.32;8.50;;;24.70;29.70;;;;;;5054915;28;20084;-60
2023/03/04 11:46:20;;;;;;;9.20;7.25;;;24.70;29.70;;;;;;5055400;28;20111;-60
2023/03/04 11:49:11;;;;;;;10.38;7.03;;;24.70;29.70;;;;;;5054607;28;20564;-60
2023/03/04 11:52:09;;;;;;;12.27;8.32;;;24.70;29.70;;;;;;5055099;28;20059;-60
2023/03/04 11:55:15;;;;;;;10.57;8.13;;;24.80;29.70;;;;;;5055022;28;20132;-60
2023/03/04 11:58:08;;;;;;;12.88;8.85;;;24.80;29.70;;;;;;5054725;28;20088;-61
2023/03/04 12:01:01;;;;;;;10.20;7.80;;;24.80;29.70;;;;;;5054507;28;20056;-61
2023/03/04 12:03:56;;;;;;;10.65;8.18;;;24.80;29.60;;;;;;5054786;28;20048;-60
2023/03/04 12:06:50;;;;;;;12.20;7.80;;;24.80;29.50;;;;;;5054833;28;20086;-60
2023/03/04 12:09:54;;;;;;;10.30;8.10;;;24.80;29.50;;;;;;5054889;28;20438;-60
2023/03/04 12:13:01;;;;;;;10.63;8.10;;;24.80;29.40;;;;;;5054893;28;20124;-60
2023/03/04 12:15:43;;;;;;;12.35;8.60;;;24.90;29.20;;;;;;5054334;28;20055;-60
2023/03/04 12:18:34;;;;;;;11.10;8.55;;;24.90;29.30;;;;;;5054609;28;20409;-60
2023/03/04 12:21:16;;;;;;;12.85;8.32;;;24.90;29.20;;;;;;5054503;28;20491;-60
2023/03/04 12:24:13;;;;;;;17.20;9.05;;;24.80;29.10;;;;;;5054322;28;20048;-61
2023/03/04 12:27:21;;;;;;;11.95;7.82;;;24.80;29.10;;;;;;5054282;28;20053;-61
2023/03/04 12:30:15;;;;;;;11.80;7.93;;;24.90;29.20;;;;;;5054274;28;20136;-60
2023/03/04 12:33:22;;;;;;;10.60;8.35;;;24.90;29.20;;;;;;5054008;28;20099;-60
2023/03/04 12:36:17;;;;;;;11.38;7.85;;;24.80;29.20;;;;;;5053817;28;20048;-61
2023/03/04 12:38:58;;;;;;;10.68;8.35;;;24.90;29.20;;;;;;5052942;28;20144;-61
2023/03/04 12:41:42;;;;;;;11.95;7.65;;;24.90;29.20;;;;;;5052993;28;20092;-60
2023/03/04 12:44:18;;;;;;;9.25;7.68;;;24.80;29.20;;;;;;5054433;28;20128;-60
2023/03/04 12:47:25;;;;;;;9.02;7.45;;;24.80;29.10;;;;;;5054134;28;20048;-61
2023/03/04 12:50:20;;;;;;;10.80;8.48;;;24.90;29.20;;;;;;5053724;28;20076;-60
2023/03/04 12:53:08;;;;;;;10.93;8.77;;;24.90;29.20;;;;;;5054453;28;20441;-60
2023/03/04 12:55:38;;;;;;;12.77;8.75;;;24.80;29.10;;;;;;5054176;28;20128;-60
2023/03/04 12:58:20;;;;;;;11.43;8.15;;;24.90;29.20;;;;;;5053473;28;20104;-60
2023/03/04 13:01:03;;;;;;;13.73;8.73;;;24.80;29.10;;;;;;5054026;28;20133;-61